Time;durP1;ratioP1;P1;durP2;ratioP2;P2;SDS_P1;SDS_P2;PMS_P1;PMS_P2;Temp;Humidity;BMP_temperature;BMP_pressure;BME280_temperature;BME280_humidity;BME280_pressure;Samples;Min_cycle;Max_cycle;Signal;HPM_P1;HPM_P2
2021/04/18 00:01:14;;;;;;;;;;;;;;;21.27;28.00;102451.63;2196422;39;113889;-57
2021/04/18 00:02:47;;;;;;;;;;;;;;;21.26;28.11;102449.94;2192538;39;115196;-55
2021/04/18 00:04:18;;;;;;;;;;;;;;;21.25;28.15;102451.09;2192772;39;114828;-55
2021/04/18 00:05:50;;;;;;;;;;;;;;;21.26;28.14;102450.78;2192495;39;114824;-59
2021/04/18 00:07:21;;;;;;;;;;;;;;;21.26;28.46;102453.59;2194100;39;115040;-59
2021/04/18 00:08:52;;;;;;;;;;;;;;;21.26;28.56;102447.97;2192597;39;114490;-58
2021/04/18 00:10:23;;;;;;;;;;;;;;;21.23;28.55;102447.69;2198440;39;115008;-55
2021/04/18 00:11:54;;;;;;;;;;;;;;;21.22;28.48;102444.03;2198500;39;114860;-56
2021/04/18 00:13:25;;;;;;;;;;;;;;;21.23;28.94;102439.25;2197585;39;114885;-57
2021/04/18 00:14:56;;;;;;;;;;;;;;;21.24;29.21;102436.19;2193323;39;114966;-57
2021/04/18 00:16:28;;;;;;;;;;;;;;;21.23;29.24;102442.06;2193500;39;114912;-58
2021/04/18 00:18:00;;;;;;;;;;;;;;;21.24;29.00;102444.63;2195216;39;114920;-59
2021/04/18 00:19:34;;;;;;;;;;;;;;;21.23;29.07;102445.72;2194105;39;115790;-56
2021/04/18 00:21:05;;;;;;;;;;;;;;;21.22;29.00;102435.59;2193073;39;114480;-59
2021/04/18 00:22:38;;;;;;;;;;;;;;;21.22;29.13;102437.56;2197518;39;115381;-56
2021/04/18 00:24:09;;;;;;;;;;;;;;;21.21;29.17;102436.72;2194701;39;115959;-57
2021/04/18 00:25:40;;;;;;;;;;;;;;;21.22;29.31;102434.75;2193465;39;116142;-56
2021/04/18 00:27:12;;;;;;;;;;;;;;;21.22;29.67;102429.13;2196040;39;115492;-56
2021/04/18 00:28:43;;;;;;;;;;;;;;;21.20;29.73;102431.41;2193745;39;114716;-57
2021/04/18 00:30:15;;;;;;;;;;;;;;;21.21;29.43;102433.91;2195912;39;116240;-60
2021/04/18 00:31:46;;;;;;;;;;;;;;;21.21;29.45;102428.28;2194811;39;115562;-56
2021/04/18 00:33:18;;;;;;;;;;;;;;;21.21;29.76;102421.84;2195994;39;115608;-55
2021/04/18 00:34:49;;;;;;;;;;;;;;;21.17;29.61;102423.50;2194141;39;115407;-57
2021/04/18 00:36:20;;;;;;;;;;;;;;;21.18;29.88;102423.22;2196070;39;115153;-58
2021/04/18 00:37:52;;;;;;;;;;;;;;;21.17;30.18;102420.69;2194274;39;115465;-57
2021/04/18 00:39:23;;;;;;;;;;;;;;;21.18;29.91;102425.19;2195385;39;115405;-55
2021/04/18 00:40:54;;;;;;;;;;;;;;;21.16;29.80;102422.69;2193312;39;114678;-57
2021/04/18 00:42:25;;;;;;;;;;;;;;;21.17;29.84;102410.28;2193110;39;114631;-55
2021/04/18 00:43:56;;;;;;;;;;;;;;;21.17;29.77;102413.09;2195705;39;115706;-56
2021/04/18 00:45:27;;;;;;;;;;;;;;;21.17;29.91;102407.47;2205476;39;116296;-59
2021/04/18 00:46:59;;;;;;;;;;;;;;;21.14;30.20;102407.19;2197720;39;114074;-58
2021/04/18 00:48:33;;;;;;;;;;;;;;;21.17;30.35;102401.00;2201787;39;114624;-60
2021/04/18 00:50:05;;;;;;;;;;;;;;;21.17;29.94;102406.63;2195037;39;113684;-60
2021/04/18 00:51:36;;;;;;;;;;;;;;;21.17;30.05;102406.63;2194611;39;114284;-59
2021/04/18 00:53:07;;;;;;;;;;;;;;;21.14;29.97;102395.94;2195559;39;113957;-60
2021/04/18 00:54:39;;;;;;;;;;;;;;;21.15;30.18;102392.88;2201225;39;113689;-58
2021/04/18 00:56:10;;;;;;;;;;;;;;;21.14;30.37;102390.31;2195068;39;113918;-58
2021/04/18 00:57:42;;;;;;;;;;;;;;;21.12;30.63;102392.56;2192710;39;113849;-56
2021/04/18 00:59:13;;;;;;;;;;;;;;;21.13;30.69;102386.66;2193417;39;113629;-58
2021/04/18 01:00:44;;;;;;;;;;;;;;;21.12;30.25;102398.19;2196584;39;113669;-59
2021/04/18 01:02:15;;;;;;;;;;;;;;;21.13;30.45;102394.25;2193551;39;114248;-59
2021/04/18 01:03:47;;;;;;;;;;;;;;;21.12;30.74;102399.00;2194924;39;114527;-57
2021/04/18 01:05:18;;;;;;;;;;;;;;;21.12;30.77;102398.19;2194885;39;113905;-58
2021/04/18 01:06:49;;;;;;;;;;;;;;;21.12;30.71;102386.94;2195978;39;114007;-56
2021/04/18 01:08:20;;;;;;;;;;;;;;;21.10;30.52;102389.16;2194917;39;114814;-57
2021/04/18 01:09:51;;;;;;;;;;;;;;;21.08;30.37;102395.06;2190630;39;115549;-56
2021/04/18 01:11:22;;;;;;;;;;;;;;;21.09;30.71;102395.91;2192554;39;114824;-58
2021/04/18 01:12:54;;;;;;;;;;;;;;;21.08;30.86;102385.78;2193947;39;114915;-58
2021/04/18 01:14:25;;;;;;;;;;;;;;;21.07;30.87;102384.13;2192996;39;114785;-58
2021/04/18 01:15:57;;;;;;;;;;;;;;;21.10;30.52;102383.53;2195691;39;114907;-56
2021/04/18 01:17:28;;;;;;;;;;;;;;;21.08;31.04;102377.34;2199015;39;114933;-58
2021/04/18 01:18:59;;;;;;;;;;;;;;;21.06;30.97;102376.78;2198252;39;117142;-58
2021/04/18 01:20:30;;;;;;;;;;;;;;;21.04;30.89;102379.03;2198490;39;114934;-57
2021/04/18 01:22:02;;;;;;;;;;;;;;;21.04;31.33;102373.41;2196904;39;115391;-57
2021/04/18 01:23:33;;;;;;;;;;;;;;;21.03;31.41;102375.38;2195819;39;115324;-58
2021/04/18 01:25:06;;;;;;;;;;;;;;;21.05;30.98;102369.47;2192134;39;115209;-57
2021/04/18 01:26:37;;;;;;;;;;;;;;;21.04;31.31;102374.25;2189817;39;114878;-57
2021/04/18 01:28:09;;;;;;;;;;;;;;;21.01;31.41;102366.38;2197097;39;114833;-60
2021/04/18 01:29:40;;;;;;;;;;;;;;;21.02;31.56;102368.09;2195773;39;115612;-55
2021/04/18 01:31:12;;;;;;;;;;;;;;;21.01;31.04;102368.34;2195184;39;115533;-56
2021/04/18 01:32:45;;;;;;;;;;;;;;;21.00;31.49;102363.84;2200698;39;115582;-60
2021/04/18 01:34:16;;;;;;;;;;;;;;;20.99;31.09;102359.34;2197431;39;115503;-56
2021/04/18 01:35:48;;;;;;;;;;;;;;;21.00;31.30;102355.41;2191869;39;115505;-56
2021/04/18 01:37:20;;;;;;;;;;;;;;;21.01;31.14;102357.97;2194345;39;115971;-56
2021/04/18 01:38:52;;;;;;;;;;;;;;;21.00;31.41;102359.06;2196199;39;115546;-59
2021/04/18 01:40:26;;;;;;;;;;;;;;;20.97;31.37;102355.97;2195369;39;115616;-57
2021/04/18 01:41:57;;;;;;;;;;;;;;;20.97;31.74;102355.97;2194749;39;115639;-57
2021/04/18 01:43:28;;;;;;;;;;;;;;;20.95;31.62;102358.22;2194133;39;115541;-55
2021/04/18 01:44:59;;;;;;;;;;;;;;;20.92;32.04;102354.00;2198784;39;115578;-58
2021/04/18 01:46:31;;;;;;;;;;;;;;;20.93;31.58;102355.69;2197458;39;115574;-57
2021/04/18 01:48:02;;;;;;;;;;;;;;;20.91;31.42;102352.31;2194713;39;115536;-57
2021/04/18 01:49:33;;;;;;;;;;;;;;;20.91;31.95;102345.84;2196543;39;115662;-56
2021/04/18 01:51:08;;;;;;;;;;;;;;;20.91;31.47;102354.25;2195455;39;114561;-56
2021/04/18 01:52:40;;;;;;;;;;;;;;;20.91;31.95;102351.47;2197266;39;113712;-57
2021/04/18 01:54:11;;;;;;;;;;;;;;;20.90;31.85;102346.94;2197517;39;113875;-57
2021/04/18 01:55:42;;;;;;;;;;;;;;;20.89;31.78;102337.72;2198520;39;114163;-57
2021/04/18 01:57:14;;;;;;;;;;;;;;;20.89;32.14;102345.28;2195870;39;113700;-58
2021/04/18 01:58:45;;;;;;;;;;;;;;;20.88;31.86;102341.63;2195712;39;113816;-56
2021/04/18 02:00:16;;;;;;;;;;;;;;;20.87;31.84;102342.75;2197920;39;113785;-58
2021/04/18 02:01:47;;;;;;;;;;;;;;;20.86;32.28;102332.63;2196808;39;114275;-55
2021/04/18 02:03:19;;;;;;;;;;;;;;;20.86;32.08;102338.25;2196421;39;113828;-58
2021/04/18 02:04:53;;;;;;;;;;;;;;;20.86;32.22;102338.25;2196573;39;114907;-54
2021/04/18 02:06:25;;;;;;;;;;;;;;;20.86;32.18;102332.63;2195239;39;113532;-56
2021/04/18 02:07:59;;;;;;;;;;;;;;;20.87;32.33;102334.31;2190582;39;113929;-58
2021/04/18 02:09:31;;;;;;;;;;;;;;;20.85;32.27;102334.59;2192720;39;113970;-58
2021/04/18 02:11:02;;;;;;;;;;;;;;;20.83;32.20;102331.22;2194575;39;114165;-58
2021/04/18 02:12:34;;;;;;;;;;;;;;;20.84;32.04;102338.53;2200945;39;113699;-57
2021/04/18 02:14:05;;;;;;;;;;;;;;;20.82;32.62;102331.50;2195979;39;114872;-56
2021/04/18 02:15:36;;;;;;;;;;;;;;;20.85;32.52;102331.78;2201936;39;114984;-56
2021/04/18 02:17:07;;;;;;;;;;;;;;;20.83;32.40;102325.59;2200280;39;115212;-56
2021/04/18 02:18:39;;;;;;;;;;;;;;;20.84;32.45;102327.31;2196553;39;114925;-58
2021/04/18 02:20:10;;;;;;;;;;;;;;;20.81;32.60;102322.22;2199001;39;115186;-58
2021/04/18 02:21:41;;;;;;;;;;;;;;;20.82;32.84;102325.88;2195471;39;114909;-57
2021/04/18 02:23:13;;;;;;;;;;;;;;;20.84;32.82;102329.25;2195910;39;114791;-60
2021/04/18 02:24:44;;;;;;;;;;;;;;;20.81;33.34;102325.03;2198424;39;116924;-58
2021/04/18 02:26:15;;;;;;;;;;;;;;;20.81;32.75;102319.41;2198416;39;115353;-57
2021/04/18 02:27:46;;;;;;;;;;;;;;;20.83;33.18;102324.75;2198960;39;114803;-59
2021/04/18 02:29:17;;;;;;;;;;;;;;;20.82;33.02;102328.69;2197557;39;114944;-55
2021/04/18 02:30:48;;;;;;;;;;;;;;;20.78;33.33;102325.59;2191960;39;114929;-59
2021/04/18 02:32:20;;;;;;;;;;;;;;;20.79;33.12;102323.63;2196279;39;114907;-56
2021/04/18 02:33:51;;;;;;;;;;;;;;;20.79;33.12;102329.25;2200518;39;114945;-56
2021/04/18 02:35:22;;;;;;;;;;;;;;;20.78;33.58;102331.22;2197257;39;115459;-56
2021/04/18 02:36:54;;;;;;;;;;;;;;;20.77;33.34;102321.09;2187747;39;114714;-58
2021/04/18 02:38:25;;;;;;;;;;;;;;;20.78;33.50;102333.16;2195348;39;115541;-56
2021/04/18 02:39:56;;;;;;;;;;;;;;;20.77;33.61;102328.66;2198374;39;115599;-58
2021/04/18 02:41:27;;;;;;;;;;;;;;;20.77;33.76;102328.66;2197620;39;115716;-59
2021/04/18 02:42:58;;;;;;;;;;;;;;;20.76;33.64;102330.63;2197753;39;115856;-56
2021/04/18 02:44:29;;;;;;;;;;;;;;;20.76;33.50;102329.78;2197285;39;115741;-56
2021/04/18 02:46:01;;;;;;;;;;;;;;;20.76;33.73;102329.78;2197972;39;115756;-58
2021/04/18 02:47:32;;;;;;;;;;;;;;;20.75;33.71;102328.97;2197354;39;115768;-58
2021/04/18 02:49:03;;;;;;;;;;;;;;;20.76;33.65;102326.97;2190520;39;115557;-56
2021/04/18 02:50:34;;;;;;;;;;;;;;;20.76;33.61;102332.59;2193921;39;115657;-55
2021/04/18 02:52:05;;;;;;;;;;;;;;;20.74;33.47;102334.84;2198458;39;114832;-55
2021/04/18 02:53:36;;;;;;;;;;;;;;;20.73;34.14;102338.75;2197477;39;115592;-57
2021/04/18 02:55:15;;;;;;;;;;;;;;;20.75;33.83;102340.19;2205365;39;115682;-59
2021/04/18 02:56:46;;;;;;;;;;;;;;;20.72;34.08;102342.69;2199721;39;113884;-58
2021/04/18 02:58:17;;;;;;;;;;;;;;;20.71;33.86;102336.25;2197591;39;113926;-54
2021/04/18 02:59:48;;;;;;;;;;;;;;;20.72;34.35;102346.34;2195908;39;113861;-55
2021/04/18 03:01:21;;;;;;;;;;;;;;;20.71;34.26;102344.69;2197464;39;114721;-56
2021/04/18 03:02:53;;;;;;;;;;;;;;;20.71;33.73;102341.03;2195947;39;113835;-56
2021/04/18 03:04:24;;;;;;;;;;;;;;;20.72;33.89;102339.88;2193528;39;114002;-58
2021/04/18 03:05:55;;;;;;;;;;;;;;;20.75;33.73;102337.38;2199362;39;114003;-57
2021/04/18 03:07:27;;;;;;;;;;;;;;;20.73;33.75;102342.41;2198347;39;113884;-58
2021/04/18 03:09:00;;;;;;;;;;;;;;;20.71;33.90;102339.06;2196901;39;114103;-57
2021/04/18 03:10:31;;;;;;;;;;;;;;;20.70;33.76;102340.19;2197817;39;114327;-56
2021/04/18 03:12:02;;;;;;;;;;;;;;;20.71;33.93;102335.41;2199251;39;113963;-56
2021/04/18 03:13:34;;;;;;;;;;;;;;;20.70;33.74;102342.97;2197124;39;114161;-56
2021/04/18 03:15:06;;;;;;;;;;;;;;;20.71;33.69;102339.06;2199033;39;114022;-59
2021/04/18 03:16:37;;;;;;;;;;;;;;;20.70;34.03;102339.31;2200158;39;114813;-59
2021/04/18 03:18:09;;;;;;;;;;;;;;;20.69;34.00;102335.66;2204479;39;115524;-59
2021/04/18 03:19:40;;;;;;;;;;;;;;;20.65;33.59;102334.53;2194272;39;115104;-56
2021/04/18 03:21:12;;;;;;;;;;;;;;;20.68;33.91;102339.59;2194271;39;114792;-60
2021/04/18 03:22:43;;;;;;;;;;;;;;;20.68;33.57;102339.59;2193656;39;114874;-56
2021/04/18 03:24:14;;;;;;;;;;;;;;;20.67;33.95;102340.72;2194273;39;115466;-59
2021/04/18 03:25:46;;;;;;;;;;;;;;;20.67;34.08;102334.28;2193604;39;114750;-57
2021/04/18 03:27:20;;;;;;;;;;;;;;;20.68;33.79;102344.38;2194495;39;115045;-56
2021/04/18 03:28:51;;;;;;;;;;;;;;;20.66;33.61;102339.03;2198566;39;115643;-55
2021/04/18 03:30:23;;;;;;;;;;;;;;;20.64;33.88;102338.47;2199762;39;114902;-55
2021/04/18 03:31:54;;;;;;;;;;;;;;;20.65;33.88;102331.72;2195863;39;114831;-58
2021/04/18 03:33:26;;;;;;;;;;;;;;;20.65;33.93;102333.69;2196048;39;114867;-55
2021/04/18 03:34:58;;;;;;;;;;;;;;;20.63;34.10;102333.94;2197886;39;115714;-58
2021/04/18 03:36:29;;;;;;;;;;;;;;;20.60;34.14;102325.25;2192664;39;114855;-54
2021/04/18 03:38:02;;;;;;;;;;;;;;;20.60;33.91;102328.91;2202172;39;114832;-59
2021/04/18 03:39:33;;;;;;;;;;;;;;;20.59;33.60;102318.78;2193406;39;115624;-55
2021/04/18 03:41:05;;;;;;;;;;;;;;;20.62;33.88;102326.69;2193127;39;115534;-54
2021/04/18 03:42:36;;;;;;;;;;;;;;;20.62;33.58;102329.47;2194807;39;115537;-59
2021/04/18 03:44:08;;;;;;;;;;;;;;;20.60;33.73;102322.44;2193374;39;115670;-59
2021/04/18 03:45:39;;;;;;;;;;;;;;;20.59;33.96;102324.41;2196093;39;114850;-56
2021/04/18 03:47:10;;;;;;;;;;;;;;;20.58;33.80;102322.69;2199032;39;115441;-58
2021/04/18 03:48:41;;;;;;;;;;;;;;;20.59;33.95;102327.19;2204764;39;115683;-59
2021/04/18 03:50:13;;;;;;;;;;;;;;;20.57;34.11;102318.22;2199452;39;115248;-56
2021/04/18 03:51:45;;;;;;;;;;;;;;;20.57;33.75;102321.03;2196893;39;115605;-59
2021/04/18 03:53:16;;;;;;;;;;;;;;;20.57;33.74;102321.03;2195092;39;115638;-57
2021/04/18 03:54:48;;;;;;;;;;;;;;;20.56;34.03;102319.34;2199488;39;115974;-57
2021/04/18 03:56:19;;;;;;;;;;;;;;;20.54;33.83;102315.09;2196757;39;116305;-58
2021/04/18 03:57:50;;;;;;;;;;;;;;;20.52;33.65;102309.78;2193254;39;115730;-57
2021/04/18 03:59:21;;;;;;;;;;;;;;;20.54;33.81;102313.13;2199501;39;115491;-58
2021/04/18 04:00:52;;;;;;;;;;;;;;;20.52;33.99;102306.97;2197971;39;115629;-57
2021/04/18 04:02:23;;;;;;;;;;;;;;;20.52;33.84;102304.16;2197215;39;114250;-57
2021/04/18 04:03:55;;;;;;;;;;;;;;;20.53;33.68;102300.25;2193720;39;113975;-55
2021/04/18 04:05:27;;;;;;;;;;;;;;;20.52;34.15;102306.97;2199051;39;113930;-56
2021/04/18 04:06:58;;;;;;;;;;;;;;;20.50;33.92;102306.38;2195007;39;113741;-57
2021/04/18 04:08:29;;;;;;;;;;;;;;;20.52;34.13;102314.56;2193600;39;113839;-56
2021/04/18 04:10:07;;;;;;;;;;;;;;;20.50;33.95;102303.59;2198047;39;113926;-60
2021/04/18 04:11:38;;;;;;;;;;;;;;;20.50;34.14;102309.19;2198955;39;113624;-55
2021/04/18 04:13:09;;;;;;;;;;;;;;;20.50;34.23;102306.38;2204646;39;113911;-56
2021/04/18 04:14:40;;;;;;;;;;;;;;;20.49;34.36;102301.88;2198973;39;113844;-59
2021/04/18 04:16:12;;;;;;;;;;;;;;;20.50;34.47;102309.19;2195396;39;113859;-57
2021/04/18 04:17:43;;;;;;;;;;;;;;;20.47;33.98;102301.34;2203140;39;113780;-58
2021/04/18 04:19:14;;;;;;;;;;;;;;;20.48;34.78;102299.38;2195114;39;114193;-59
2021/04/18 04:20:45;;;;;;;;;;;;;;;20.48;34.63;102299.38;2193032;39;113603;-58
2021/04/18 04:22:16;;;;;;;;;;;;;;;20.45;34.71;102303.56;2195590;39;113872;-58
2021/04/18 04:23:48;;;;;;;;;;;;;;;20.45;34.75;102305.53;2193103;39;114328;-56
2021/04/18 04:25:19;;;;;;;;;;;;;;;20.46;34.55;102304.41;2193381;39;114931;-56
2021/04/18 04:26:50;;;;;;;;;;;;;;;20.50;34.38;102311.16;2196900;39;114907;-56
2021/04/18 04:28:21;;;;;;;;;;;;;;;20.46;34.98;102308.06;2198414;39;114805;-60
2021/04/18 04:29:52;;;;;;;;;;;;;;;20.47;34.89;102312.56;2198992;39;114747;-60
2021/04/18 04:31:23;;;;;;;;;;;;;;;20.48;34.79;102310.59;2197883;39;114821;-59
2021/04/18 04:32:54;;;;;;;;;;;;;;;20.48;35.18;102308.66;2199314;39;115019;-58
2021/04/18 04:34:26;;;;;;;;;;;;;;;20.46;34.99;102302.44;2200272;39;114877;-60
2021/04/18 04:35:57;;;;;;;;;;;;;;;20.47;35.26;102298.53;2198907;39;115553;-54
2021/04/18 04:37:28;;;;;;;;;;;;;;;20.46;34.62;102305.25;2198654;39;114832;-54
2021/04/18 04:38:59;;;;;;;;;;;;;;;20.46;34.90;102307.22;2195250;39;114905;-61
2021/04/18 04:40:30;;;;;;;;;;;;;;;20.44;34.65;102307.50;2199181;39;115261;-59
2021/04/18 04:42:02;;;;;;;;;;;;;;;20.45;34.92;102302.72;2195901;39;115006;-58
2021/04/18 04:43:33;;;;;;;;;;;;;;;20.40;34.96;102307.19;2194944;39;114944;-57
2021/04/18 04:45:05;;;;;;;;;;;;;;;20.41;35.07;102311.69;2196823;39;115940;-61
2021/04/18 04:46:36;;;;;;;;;;;;;;;20.40;35.21;102310.00;2198074;39;115901;-55
2021/04/18 04:48:08;;;;;;;;;;;;;;;20.42;35.01;102309.72;2194647;39;115745;-56
2021/04/18 04:49:39;;;;;;;;;;;;;;;20.43;34.73;102319.84;2194410;39;115592;-59
2021/04/18 04:51:10;;;;;;;;;;;;;;;20.40;34.78;102317.56;2194480;39;116019;-57
2021/04/18 04:52:41;;;;;;;;;;;;;;;20.37;34.97;102313.38;2199210;39;115638;-59
2021/04/18 04:54:13;;;;;;;;;;;;;;;20.38;34.98;102312.25;2197676;39;116002;-56
2021/04/18 04:55:46;;;;;;;;;;;;;;;20.38;34.82;102317.03;2198747;39;114800;-60
2021/04/18 04:57:17;;;;;;;;;;;;;;;20.36;34.79;102319.25;2199110;39;115912;-56
2021/04/18 04:58:48;;;;;;;;;;;;;;;20.37;34.49;102320.94;2198921;39;115664;-56
2021/04/18 05:00:20;;;;;;;;;;;;;;;20.35;34.60;102318.41;2195609;39;116214;-56
2021/04/18 05:01:51;;;;;;;;;;;;;;;20.37;34.60;102315.31;2197073;39;115510;-56
2021/04/18 05:03:25;;;;;;;;;;;;;;;20.36;34.92;102322.91;2192828;39;115504;-57
2021/04/18 05:04:57;;;;;;;;;;;;;;;20.37;34.90;102320.94;2199098;39;115607;-56
2021/04/18 05:06:28;;;;;;;;;;;;;;;20.36;34.98;102322.91;2199058;39;113824;-56
2021/04/18 05:07:59;;;;;;;;;;;;;;;20.35;34.42;102323.19;2196462;39;113545;-57
2021/04/18 05:09:30;;;;;;;;;;;;;;;20.34;34.91;102324.31;2195231;39;113580;-56
2021/04/18 05:11:01;;;;;;;;;;;;;;;20.35;34.77;102323.19;2196013;39;115963;-59
2021/04/18 05:12:32;;;;;;;;;;;;;;;20.31;35.03;102322.03;2195981;39;114003;-54
2021/04/18 05:14:04;;;;;;;;;;;;;;;20.29;34.70;102327.06;2190698;39;114094;-59
2021/04/18 05:15:35;;;;;;;;;;;;;;;20.29;34.90;102333.50;2200550;39;113722;-58
2021/04/18 05:17:06;;;;;;;;;;;;;;;20.28;34.79;102337.44;2190047;39;113956;-55
2021/04/18 05:18:37;;;;;;;;;;;;;;;20.30;35.00;102334.41;2188499;39;113959;-57
2021/04/18 05:20:09;;;;;;;;;;;;;;;20.30;34.87;102335.25;2193010;39;113691;-58
2021/04/18 05:21:43;;;;;;;;;;;;;;;20.30;34.91;102337.19;2195164;39;113772;-56
2021/04/18 05:23:15;;;;;;;;;;;;;;;20.27;35.04;102337.69;2193244;39;114296;-54
2021/04/18 05:24:46;;;;;;;;;;;;;;;20.33;35.05;102339.44;2192040;39;113652;-55
2021/04/18 05:26:18;;;;;;;;;;;;;;;20.35;35.53;102338.03;2192465;39;113678;-54
2021/04/18 05:27:50;;;;;;;;;;;;;;;20.36;35.66;102338.91;2192064;39;113927;-54
2021/04/18 05:29:22;;;;;;;;;;;;;;;20.40;35.42;102334.41;2192416;39;115389;-58
2021/04/18 05:30:55;;;;;;;;;;;;;;;20.41;35.26;102336.13;2192729;39;114972;-56
2021/04/18 05:32:26;;;;;;;;;;;;;;;20.40;35.61;102335.25;2191945;39;113948;-56
2021/04/18 05:33:58;;;;;;;;;;;;;;;20.43;35.52;102331.09;2192415;39;114918;-56
2021/04/18 05:35:29;;;;;;;;;;;;;;;20.46;35.44;102327.72;2189547;39;113882;-58
2021/04/18 05:37:00;;;;;;;;;;;;;;;20.47;35.70;102332.22;2191305;39;115108;-56
2021/04/18 05:38:31;;;;;;;;;;;;;;;20.51;35.73;102333.34;2190958;39;115278;-57
2021/04/18 05:40:04;;;;;;;;;;;;;;;20.54;35.77;102324.38;2191375;39;114710;-58
2021/04/18 05:41:36;;;;;;;;;;;;;;;20.58;35.69;102324.69;2190995;39;115305;-58
2021/04/18 05:43:07;;;;;;;;;;;;;;;20.62;36.08;102329.47;2192629;39;114831;-59
2021/04/18 05:44:38;;;;;;;;;;;;;;;20.66;35.92;102321.34;2191266;39;114851;-56
2021/04/18 05:46:09;;;;;;;;;;;;;;;20.70;35.88;102328.09;2189059;39;114623;-55
2021/04/18 05:47:40;;;;;;;;;;;;;;;20.73;36.06;102325.56;2187950;39;115515;-58
2021/04/18 05:49:12;;;;;;;;;;;;;;;20.77;35.92;102329.50;2194583;39;114893;-55
2021/04/18 05:50:44;;;;;;;;;;;;;;;20.81;35.80;102326.97;2188220;39;115578;-57
2021/04/18 05:52:16;;;;;;;;;;;;;;;20.85;35.69;102326.16;2192197;39;114614;-59
2021/04/18 05:53:47;;;;;;;;;;;;;;;20.89;36.10;102317.19;2189283;39;115580;-58
2021/04/18 05:55:18;;;;;;;;;;;;;;;20.94;35.69;102320.84;2190558;39;115770;-60
2021/04/18 05:56:49;;;;;;;;;;;;;;;20.99;35.46;102328.44;2190619;39;115786;-58
2021/04/18 05:58:20;;;;;;;;;;;;;;;21.03;35.37;102323.97;2192059;39;116287;-58
2021/04/18 05:59:51;;;;;;;;;;;;;;;21.05;35.51;102330.13;2190957;39;115644;-55
2021/04/18 06:01:23;;;;;;;;;;;;;;;21.11;35.45;102329.88;2189633;39;115399;-56
2021/04/18 06:02:55;;;;;;;;;;;;;;;21.15;35.03;102327.38;2190439;39;115555;-57
2021/04/18 06:04:26;;;;;;;;;;;;;;;21.19;35.37;102328.50;2188570;39;115466;-60
2021/04/18 06:05:58;;;;;;;;;;;;;;;21.23;34.90;102326.81;2190391;39;115587;-57
2021/04/18 06:07:29;;;;;;;;;;;;;;;21.27;35.21;102325.97;2188526;39;115655;-58
2021/04/18 06:09:00;;;;;;;;;;;;;;;21.32;35.13;102327.09;2192394;39;115896;-58
2021/04/18 06:10:32;;;;;;;;;;;;;;;21.34;35.49;102328.53;2190065;39;115507;-59
2021/04/18 06:12:03;;;;;;;;;;;;;;;21.38;35.47;102329.66;2191755;39;113648;-58
2021/04/18 06:13:36;;;;;;;;;;;;;;;21.42;34.88;102329.94;2187574;39;113649;-55
2021/04/18 06:15:09;;;;;;;;;;;;;;;21.46;35.13;102323.47;2189294;39;113798;-57
2021/04/18 06:16:41;;;;;;;;;;;;;;;21.49;35.09;102331.31;2197866;39;114271;-57
2021/04/18 06:18:12;;;;;;;;;;;;;;;21.53;35.10;102326.00;2196814;39;113922;-57
2021/04/18 06:19:43;;;;;;;;;;;;;;;21.56;35.05;102328.25;2201936;39;114104;-60
2021/04/18 06:21:15;;;;;;;;;;;;;;;21.60;35.12;102338.66;2198256;39;113943;-59
2021/04/18 06:22:46;;;;;;;;;;;;;;;21.64;35.04;102336.09;2201007;39;113686;-59
2021/04/18 06:24:17;;;;;;;;;;;;;;;21.65;35.01;102335.84;2196205;39;113726;-56
2021/04/18 06:25:48;;;;;;;;;;;;;;;21.70;34.62;102332.19;2194181;39;113645;-58
2021/04/18 06:27:20;;;;;;;;;;;;;;;21.73;34.40;102335.25;2196743;39;114215;-59
2021/04/18 06:28:52;;;;;;;;;;;;;;;21.77;34.63;102334.69;2193448;39;113581;-56
2021/04/18 06:30:23;;;;;;;;;;;;;;;21.79;34.56;102336.09;2198343;39;113865;-57
2021/04/18 06:31:54;;;;;;;;;;;;;;;21.83;34.38;102337.22;2197665;39;114076;-55
2021/04/18 06:33:25;;;;;;;;;;;;;;;21.86;34.56;102339.47;2194256;39;114587;-55
2021/04/18 06:34:57;;;;;;;;;;;;;;;21.89;34.72;102341.72;2199495;39;114735;-57
2021/04/18 06:36:28;;;;;;;;;;;;;;;21.93;34.77;102336.41;2197171;39;115155;-56
2021/04/18 06:37:59;;;;;;;;;;;;;;;21.97;34.63;102341.16;2194160;39;115820;-58
2021/04/18 06:39:30;;;;;;;;;;;;;;;22.00;35.13;102336.94;2197738;39;114905;-57
2021/04/18 06:41:02;;;;;;;;;;;;;;;22.03;34.94;102339.19;2193788;39;115461;-59
2021/04/18 06:42:37;;;;;;;;;;;;;;;22.05;34.56;102336.94;2192951;39;115984;-57
2021/04/18 06:44:08;;;;;;;;;;;;;;;22.07;34.91;102334.69;2193094;39;115134;-57
2021/04/18 06:45:39;;;;;;;;;;;;;;;22.11;34.82;102335.78;2196618;39;114875;-58
2021/04/18 06:47:14;;;;;;;;;;;;;;;22.14;34.72;102335.22;2198062;39;115166;-58
2021/04/18 06:48:46;;;;;;;;;;;;;;;22.16;34.35;102338.59;2197089;39;115044;-57
2021/04/18 06:50:19;;;;;;;;;;;;;;;22.20;34.22;102325.63;2196288;39;115204;-55
2021/04/18 06:51:51;;;;;;;;;;;;;;;22.22;34.29;102330.97;2194415;39;114942;-56
2021/04/18 06:53:22;;;;;;;;;;;;;;;22.26;34.19;102329.28;2202187;39;115146;-56
2021/04/18 06:54:54;;;;;;;;;;;;;;;22.29;34.40;102331.50;2200404;39;115601;-59
2021/04/18 06:56:25;;;;;;;;;;;;;;;22.31;34.35;102330.09;2199030;39;115534;-56
2021/04/18 06:57:59;;;;;;;;;;;;;;;22.34;34.09;102329.53;2193263;39;115980;-58
2021/04/18 06:59:35;;;;;;;;;;;;;;;22.37;33.91;102334.56;2193636;39;115532;-58
2021/04/18 07:01:09;;;;;;;;;;;;;;;22.41;33.94;102329.19;2194035;39;115962;-56
2021/04/18 07:02:40;;;;;;;;;;;;;;;22.43;33.90;102330.63;2198708;39;115542;-57
2021/04/18 07:04:19;;;;;;;;;;;;;;;22.45;33.81;102331.16;2195832;39;114641;-60
2021/04/18 07:05:51;;;;;;;;;;;;;;;22.50;33.90;102335.94;2195600;39;115626;-56
2021/04/18 07:07:25;;;;;;;;;;;;;;;22.52;33.67;102331.72;2196949;39;115495;-55
2021/04/18 07:08:58;;;;;;;;;;;;;;;22.54;33.83;102343.50;2197009;39;115831;-56
2021/04/18 07:10:33;;;;;;;;;;;;;;;22.58;33.84;102332.50;2193855;39;115636;-56
2021/04/18 07:12:08;;;;;;;;;;;;;;;22.60;33.72;102330.25;2197677;39;115539;-55
2021/04/18 07:13:40;;;;;;;;;;;;;;;22.62;33.70;102334.47;2197565;39;116096;-57
2021/04/18 07:15:33;;;;;;;;;;;;;;;22.65;33.76;102329.38;2197741;39;114703;-57
2021/04/18 07:17:06;;;;;;;;;;;;;;;22.68;33.63;102332.47;2200277;39;115604;-59
2021/04/18 07:18:39;;;;;;;;;;;;;;;22.70;33.57;102335.88;2193714;39;113810;-56
2021/04/18 07:20:14;;;;;;;;;;;;;;;22.74;33.60;102333.31;2195132;39;113831;-59
2021/04/18 07:21:46;;;;;;;;;;;;;;;22.77;33.70;102332.72;2197066;39;114234;-57
2021/04/18 07:23:25;;;;;;;;;;;;;;;22.78;33.63;102331.59;2194157;39;113883;-56
2021/04/18 07:24:59;;;;;;;;;;;;;;;22.81;33.64;102325.38;2196740;39;113905;-56
2021/04/18 07:26:30;;;;;;;;;;;;;;;22.82;34.27;102330.72;2195912;39;116155;-57
2021/04/18 07:28:01;;;;;;;;;;;;;;;22.85;34.25;102326.50;2195929;39;113573;-59
2021/04/18 07:29:33;;;;;;;;;;;;;;;22.88;34.23;102331.56;2197984;39;113971;-56
2021/04/18 07:31:04;;;;;;;;;;;;;;;22.89;34.12;102325.63;2192591;39;114096;-54
2021/04/18 07:32:36;;;;;;;;;;;;;;;22.92;34.08;102327.84;2191241;39;113874;-59
2021/04/18 07:34:19;;;;;;;;;;;;;;;22.93;34.02;102326.72;2191517;39;114177;-59
2021/04/18 07:35:50;;;;;;;;;;;;;;;22.98;34.13;102331.50;2192187;39;113703;-55
2021/04/18 07:37:23;;;;;;;;;;;;;;;22.99;34.20;102327.53;2198326;39;113600;-58
2021/04/18 07:39:03;;;;;;;;;;;;;;;23.00;34.24;102323.56;2195327;39;114495;-57
2021/04/18 07:40:34;;;;;;;;;;;;;;;23.05;34.04;102326.38;2203611;39;114916;-55
2021/04/18 07:42:05;;;;;;;;;;;;;;;23.06;34.01;102325.25;2197350;39;114900;-56
2021/04/18 07:43:37;;;;;;;;;;;;;;;23.10;34.24;102322.66;2195006;39;114482;-56
2021/04/18 07:45:11;;;;;;;;;;;;;;;23.10;34.01;102323.50;2196045;39;115007;-59
2021/04/18 07:46:43;;;;;;;;;;;;;;;23.12;34.14;102321.25;2197345;39;114900;-54